sensor_id;sensor_type;location;lat;lon;timestamp;temperature;humidity
47765;DHT22;33529;49.242;8.670;2023-08-31T00:01:23;14.90;99.90
47765;DHT22;33529;49.242;8.670;2023-08-31T00:03:50;14.80;99.90
47765;DHT22;33529;49.242;8.670;2023-08-31T00:06:17;14.80;99.90
47765;DHT22;33529;49.242;8.670;2023-08-31T00:08:43;14.80;99.90
47765;DHT22;33529;49.242;8.670;2023-08-31T00:11:10;14.80;99.90
47765;DHT22;33529;49.242;8.670;2023-08-31T00:13:38;14.70;99.90
47765;DHT22;33529;49.242;8.670;2023-08-31T00:16:04;14.70;99.90
47765;DHT22;33529;49.242;8.670;2023-08-31T00:18:31;14.60;99.90
47765;DHT22;33529;49.242;8.670;2023-08-31T00:20:58;14.60;99.90
47765;DHT22;33529;49.242;8.670;2023-08-31T00:23:25;14.50;99.90
47765;DHT22;33529;49.242;8.670;2023-08-31T00:25:52;14.50;99.90
47765;DHT22;33529;49.242;8.670;2023-08-31T00:28:20;14.40;99.90
47765;DHT22;33529;49.242;8.670;2023-08-31T00:30:48;14.40;99.90
47765;DHT22;33529;49.242;8.670;2023-08-31T00:33:16;14.30;99.90
47765;DHT22;33529;49.242;8.670;2023-08-31T00:35:44;14.30;99.90
47765;DHT22;33529;49.242;8.670;2023-08-31T00:38:14;14.30;99.90
47765;DHT22;33529;49.242;8.670;2023-08-31T00:40:42;14.30;99.90
47765;DHT22;33529;49.242;8.670;2023-08-31T00:43:13;14.20;99.90
47765;DHT22;33529;49.242;8.670;2023-08-31T00:45:45;14.20;99.90
47765;DHT22;33529;49.242;8.670;2023-08-31T00:48:15;14.30;99.90
47765;DHT22;33529;49.242;8.670;2023-08-31T00:50:45;14.40;99.90
47765;DHT22;33529;49.242;8.670;2023-08-31T00:53:13;14.30;99.90
47765;DHT22;33529;49.242;8.670;2023-08-31T00:55:40;14.20;99.90
47765;DHT22;33529;49.242;8.670;2023-08-31T00:58:07;14.20;99.90
47765;DHT22;33529;49.242;8.670;2023-08-31T01:00:50;14.20;99.90
47765;DHT22;33529;49.242;8.670;2023-08-31T01:06:06;14.10;99.90
47765;DHT22;33529;49.242;8.670;2023-08-31T01:08:56;14.00;99.90
47765;DHT22;33529;49.242;8.670;2023-08-31T01:11:56;14.00;99.90
47765;DHT22;33529;49.242;8.670;2023-08-31T01:14:27;14.10;99.90
47765;DHT22;33529;49.242;8.670;2023-08-31T01:16:58;14.10;99.90
47765;DHT22;33529;49.242;8.670;2023-08-31T01:19:48;14.10;99.90
47765;DHT22;33529;49.242;8.670;2023-08-31T01:22:39;14.10;99.90
47765;DHT22;33529;49.242;8.670;2023-08-31T01:25:08;14.20;99.90
47765;DHT22;33529;49.242;8.670;2023-08-31T01:27:37;14.20;99.90
47765;DHT22;33529;49.242;8.670;2023-08-31T01:30:05;14.10;99.90
47765;DHT22;33529;49.242;8.670;2023-08-31T01:32:34;14.10;99.90
47765;DHT22;33529;49.242;8.670;2023-08-31T01:35:03;14.10;99.90
47765;DHT22;33529;49.242;8.670;2023-08-31T01:37:51;14.00;99.90
47765;DHT22;33529;49.242;8.670;2023-08-31T01:40:34;14.00;99.90
47765;DHT22;33529;49.242;8.670;2023-08-31T01:43:03;14.00;99.90
47765;DHT22;33529;49.242;8.670;2023-08-31T01:45:33;14.00;99.90
47765;DHT22;33529;49.242;8.670;2023-08-31T01:48:01;14.00;99.90
47765;DHT22;33529;49.242;8.670;2023-08-31T01:50:28;14.00;99.90
47765;DHT22;33529;49.242;8.670;2023-08-31T01:52:54;14.10;99.90
47765;DHT22;33529;49.242;8.670;2023-08-31T01:55:23;14.10;99.90
47765;DHT22;33529;49.242;8.670;2023-08-31T01:57:51;14.10;99.90
47765;DHT22;33529;49.242;8.670;2023-08-31T02:00:25;14.10;99.90
47765;DHT22;33529;49.242;8.670;2023-08-31T02:02:55;14.10;99.90
47765;DHT22;33529;49.242;8.670;2023-08-31T02:05:22;14.10;99.90
47765;DHT22;33529;49.242;8.670;2023-08-31T02:07:49;14.10;99.90
47765;DHT22;33529;49.242;8.670;2023-08-31T02:10:15;14.10;99.90
47765;DHT22;33529;49.242;8.670;2023-08-31T02:12:42;14.10;99.90
47765;DHT22;33529;49.242;8.670;2023-08-31T02:15:09;14.10;99.90
47765;DHT22;33529;49.242;8.670;2023-08-31T02:17:37;14.10;99.90
47765;DHT22;33529;49.242;8.670;2023-08-31T02:20:04;14.20;99.90
47765;DHT22;33529;49.242;8.670;2023-08-31T02:22:36;14.20;99.90
47765;DHT22;33529;49.242;8.670;2023-08-31T02:25:05;14.30;99.90
47765;DHT22;33529;49.242;8.670;2023-08-31T02:27:32;14.30;99.90
47765;DHT22;33529;49.242;8.670;2023-08-31T02:29:59;14.40;99.90
47765;DHT22;33529;49.242;8.670;2023-08-31T02:32:27;14.40;99.90
47765;DHT22;33529;49.242;8.670;2023-08-31T02:34:54;14.40;99.90
47765;DHT22;33529;49.242;8.670;2023-08-31T02:37:21;14.50;99.90
47765;DHT22;33529;49.242;8.670;2023-08-31T02:39:47;14.50;99.90
47765;DHT22;33529;49.242;8.670;2023-08-31T02:42:14;14.40;99.90
47765;DHT22;33529;49.242;8.670;2023-08-31T02:44:41;14.50;99.90
47765;DHT22;33529;49.242;8.670;2023-08-31T02:47:08;14.40;99.90
47765;DHT22;33529;49.242;8.670;2023-08-31T02:49:35;14.40;99.90
47765;DHT22;33529;49.242;8.670;2023-08-31T02:52:02;14.30;99.90
47765;DHT22;33529;49.242;8.670;2023-08-31T02:54:29;14.30;99.90
47765;DHT22;33529;49.242;8.670;2023-08-31T02:56:56;14.20;99.90
47765;DHT22;33529;49.242;8.670;2023-08-31T02:59:23;14.20;99.90
47765;DHT22;33529;49.242;8.670;2023-08-31T03:01:50;14.20;99.90
47765;DHT22;33529;49.242;8.670;2023-08-31T03:04:17;14.20;99.90
47765;DHT22;33529;49.242;8.670;2023-08-31T03:06:44;14.20;99.90
47765;DHT22;33529;49.242;8.670;2023-08-31T03:09:12;14.20;99.90
47765;DHT22;33529;49.242;8.670;2023-08-31T03:11:40;14.30;99.90
47765;DHT22;33529;49.242;8.670;2023-08-31T03:14:07;14.30;99.90
47765;DHT22;33529;49.242;8.670;2023-08-31T03:16:36;14.20;99.90
47765;DHT22;33529;49.242;8.670;2023-08-31T03:19:03;14.10;99.90
47765;DHT22;33529;49.242;8.670;2023-08-31T03:21:30;14.10;99.90
47765;DHT22;33529;49.242;8.670;2023-08-31T03:23:59;14.10;99.90
47765;DHT22;33529;49.242;8.670;2023-08-31T03:26:26;14.20;99.90
47765;DHT22;33529;49.242;8.670;2023-08-31T03:28:53;14.10;99.90
47765;DHT22;33529;49.242;8.670;2023-08-31T03:31:20;14.10;99.90
47765;DHT22;33529;49.242;8.670;2023-08-31T03:33:46;14.10;99.90
47765;DHT22;33529;49.242;8.670;2023-08-31T03:36:13;14.20;99.90
47765;DHT22;33529;49.242;8.670;2023-08-31T03:38:40;14.10;99.90
47765;DHT22;33529;49.242;8.670;2023-08-31T03:41:07;14.10;99.90
47765;DHT22;33529;49.242;8.670;2023-08-31T03:43:34;14.10;99.90
47765;DHT22;33529;49.242;8.670;2023-08-31T03:46:01;13.90;99.90
47765;DHT22;33529;49.242;8.670;2023-08-31T03:48:29;13.90;99.90
47765;DHT22;33529;49.242;8.670;2023-08-31T03:50:56;13.80;99.90
47765;DHT22;33529;49.242;8.670;2023-08-31T03:53:23;13.80;99.90
47765;DHT22;33529;49.242;8.670;2023-08-31T03:55:55;13.80;99.90
47765;DHT22;33529;49.242;8.670;2023-08-31T03:58:24;13.80;99.90
47765;DHT22;33529;49.242;8.670;2023-08-31T04:00:52;13.80;99.90
47765;DHT22;33529;49.242;8.670;2023-08-31T04:03:20;13.70;99.90
47765;DHT22;33529;49.242;8.670;2023-08-31T04:05:47;13.70;99.90
47765;DHT22;33529;49.242;8.670;2023-08-31T04:08:14;13.70;99.90
47765;DHT22;33529;49.242;8.670;2023-08-31T04:10:41;13.60;99.90
47765;DHT22;33529;49.242;8.670;2023-08-31T04:13:08;13.60;99.90
47765;DHT22;33529;49.242;8.670;2023-08-31T04:15:35;13.50;99.90
47765;DHT22;33529;49.242;8.670;2023-08-31T04:18:03;13.50;99.90
47765;DHT22;33529;49.242;8.670;2023-08-31T04:20:30;13.40;99.90
47765;DHT22;33529;49.242;8.670;2023-08-31T04:22:57;13.50;99.90
47765;DHT22;33529;49.242;8.670;2023-08-31T04:25:24;13.50;99.90
47765;DHT22;33529;49.242;8.670;2023-08-31T04:27:51;13.50;99.90
47765;DHT22;33529;49.242;8.670;2023-08-31T04:30:18;13.50;99.90
47765;DHT22;33529;49.242;8.670;2023-08-31T04:32:45;13.40;99.90
47765;DHT22;33529;49.242;8.670;2023-08-31T04:35:13;13.40;99.90
47765;DHT22;33529;49.242;8.670;2023-08-31T04:37:40;13.40;99.90
47765;DHT22;33529;49.242;8.670;2023-08-31T04:40:07;13.40;99.90
47765;DHT22;33529;49.242;8.670;2023-08-31T04:42:35;13.40;99.90
47765;DHT22;33529;49.242;8.670;2023-08-31T04:45:02;13.40;99.90
47765;DHT22;33529;49.242;8.670;2023-08-31T04:47:29;13.40;99.90
47765;DHT22;33529;49.242;8.670;2023-08-31T04:49:56;13.40;99.90
47765;DHT22;33529;49.242;8.670;2023-08-31T04:52:25;13.40;99.90
47765;DHT22;33529;49.242;8.670;2023-08-31T04:54:52;13.40;99.90
47765;DHT22;33529;49.242;8.670;2023-08-31T04:57:19;13.40;99.90
47765;DHT22;33529;49.242;8.670;2023-08-31T04:59:46;13.40;99.90
47765;DHT22;33529;49.242;8.670;2023-08-31T05:02:13;13.40;99.90
47765;DHT22;33529;49.242;8.670;2023-08-31T05:04:40;13.50;99.90
47765;DHT22;33529;49.242;8.670;2023-08-31T05:07:07;13.40;99.90
47765;DHT22;33529;49.242;8.670;2023-08-31T05:09:34;13.50;99.90
47765;DHT22;33529;49.242;8.670;2023-08-31T05:12:02;13.60;99.90
47765;DHT22;33529;49.242;8.670;2023-08-31T05:14:30;13.70;99.90
47765;DHT22;33529;49.242;8.670;2023-08-31T05:16:57;13.70;99.90
47765;DHT22;33529;49.242;8.670;2023-08-31T05:19:24;13.80;99.90
47765;DHT22;33529;49.242;8.670;2023-08-31T05:21:53;13.80;99.90
47765;DHT22;33529;49.242;8.670;2023-08-31T05:24:20;13.90;99.90
47765;DHT22;33529;49.242;8.670;2023-08-31T05:26:47;13.90;99.90
47765;DHT22;33529;49.242;8.670;2023-08-31T05:29:13;14.00;99.90
47765;DHT22;33529;49.242;8.670;2023-08-31T05:31:40;14.10;99.90
47765;DHT22;33529;49.242;8.670;2023-08-31T05:34:09;14.10;99.90
47765;DHT22;33529;49.242;8.670;2023-08-31T05:36:37;14.30;99.90
47765;DHT22;33529;49.242;8.670;2023-08-31T05:39:03;14.20;99.90
47765;DHT22;33529;49.242;8.670;2023-08-31T05:41:30;14.30;99.90
47765;DHT22;33529;49.242;8.670;2023-08-31T05:43:57;14.20;99.90
47765;DHT22;33529;49.242;8.670;2023-08-31T05:46:24;14.30;99.90
47765;DHT22;33529;49.242;8.670;2023-08-31T05:48:51;14.30;99.90
47765;DHT22;33529;49.242;8.670;2023-08-31T05:51:19;14.30;99.90
47765;DHT22;33529;49.242;8.670;2023-08-31T05:53:46;14.40;99.90
47765;DHT22;33529;49.242;8.670;2023-08-31T05:56:13;14.40;99.90
47765;DHT22;33529;49.242;8.670;2023-08-31T05:58:40;14.50;99.90
47765;DHT22;33529;49.242;8.670;2023-08-31T06:01:07;14.50;99.90
47765;DHT22;33529;49.242;8.670;2023-08-31T06:03:34;14.50;99.90
47765;DHT22;33529;49.242;8.670;2023-08-31T06:06:01;14.50;99.90
47765;DHT22;33529;49.242;8.670;2023-08-31T06:08:28;14.50;99.90
47765;DHT22;33529;49.242;8.670;2023-08-31T06:10:56;14.50;99.90
47765;DHT22;33529;49.242;8.670;2023-08-31T06:13:23;14.50;99.90
47765;DHT22;33529;49.242;8.670;2023-08-31T06:15:50;14.60;99.90
47765;DHT22;33529;49.242;8.670;2023-08-31T06:18:17;14.50;99.90
47765;DHT22;33529;49.242;8.670;2023-08-31T06:20:44;14.60;99.90
47765;DHT22;33529;49.242;8.670;2023-08-31T06:23:10;14.70;99.90
47765;DHT22;33529;49.242;8.670;2023-08-31T06:25:39;14.70;99.90
47765;DHT22;33529;49.242;8.670;2023-08-31T06:28:06;14.80;99.90
47765;DHT22;33529;49.242;8.670;2023-08-31T06:30:35;14.80;99.90
47765;DHT22;33529;49.242;8.670;2023-08-31T06:33:02;14.90;99.90
47765;DHT22;33529;49.242;8.670;2023-08-31T06:35:29;15.00;99.90
47765;DHT22;33529;49.242;8.670;2023-08-31T06:37:57;15.20;99.90
47765;DHT22;33529;49.242;8.670;2023-08-31T06:40:24;15.20;99.90
47765;DHT22;33529;49.242;8.670;2023-08-31T06:42:51;15.20;99.90
47765;DHT22;33529;49.242;8.670;2023-08-31T06:45:18;15.30;99.90
47765;DHT22;33529;49.242;8.670;2023-08-31T06:47:45;15.50;99.90
47765;DHT22;33529;49.242;8.670;2023-08-31T06:50:12;15.70;99.90
47765;DHT22;33529;49.242;8.670;2023-08-31T06:52:39;15.90;99.90
47765;DHT22;33529;49.242;8.670;2023-08-31T06:55:08;15.90;99.90
47765;DHT22;33529;49.242;8.670;2023-08-31T06:57:37;15.90;99.90
47765;DHT22;33529;49.242;8.670;2023-08-31T07:00:05;16.00;99.90
47765;DHT22;33529;49.242;8.670;2023-08-31T07:02:34;16.00;99.90
47765;DHT22;33529;49.242;8.670;2023-08-31T07:05:01;16.10;99.90
47765;DHT22;33529;49.242;8.670;2023-08-31T07:07:28;16.00;99.90
47765;DHT22;33529;49.242;8.670;2023-08-31T07:09:55;15.90;99.90
47765;DHT22;33529;49.242;8.670;2023-08-31T07:12:22;15.80;99.90
47765;DHT22;33529;49.242;8.670;2023-08-31T07:14:49;16.00;99.90
47765;DHT22;33529;49.242;8.670;2023-08-31T07:17:20;16.00;99.90
47765;DHT22;33529;49.242;8.670;2023-08-31T07:19:47;16.00;99.90
47765;DHT22;33529;49.242;8.670;2023-08-31T07:22:14;15.90;99.90
47765;DHT22;33529;49.242;8.670;2023-08-31T07:24:41;15.70;99.90
47765;DHT22;33529;49.242;8.670;2023-08-31T07:27:08;15.60;99.90
47765;DHT22;33529;49.242;8.670;2023-08-31T07:29:35;15.50;99.90
47765;DHT22;33529;49.242;8.670;2023-08-31T07:32:04;15.50;99.90
47765;DHT22;33529;49.242;8.670;2023-08-31T07:34:31;15.60;99.90
47765;DHT22;33529;49.242;8.670;2023-08-31T07:36:59;15.70;99.90
47765;DHT22;33529;49.242;8.670;2023-08-31T07:39:26;15.90;99.90
47765;DHT22;33529;49.242;8.670;2023-08-31T07:41:54;16.10;99.90
47765;DHT22;33529;49.242;8.670;2023-08-31T07:44:21;16.30;99.90
47765;DHT22;33529;49.242;8.670;2023-08-31T07:46:48;16.50;99.90
47765;DHT22;33529;49.242;8.670;2023-08-31T07:49:15;16.60;99.90
47765;DHT22;33529;49.242;8.670;2023-08-31T07:51:41;16.80;99.90
47765;DHT22;33529;49.242;8.670;2023-08-31T07:54:08;16.80;99.90
47765;DHT22;33529;49.242;8.670;2023-08-31T07:56:35;16.80;99.90
47765;DHT22;33529;49.242;8.670;2023-08-31T07:59:02;16.70;99.90
47765;DHT22;33529;49.242;8.670;2023-08-31T08:01:29;16.60;99.90
47765;DHT22;33529;49.242;8.670;2023-08-31T08:03:56;16.70;99.90
47765;DHT22;33529;49.242;8.670;2023-08-31T08:06:23;16.80;99.90
47765;DHT22;33529;49.242;8.670;2023-08-31T08:08:50;16.90;99.90
47765;DHT22;33529;49.242;8.670;2023-08-31T08:11:16;17.10;99.90
47765;DHT22;33529;49.242;8.670;2023-08-31T08:13:43;17.40;99.90
47765;DHT22;33529;49.242;8.670;2023-08-31T08:16:10;17.60;99.90
47765;DHT22;33529;49.242;8.670;2023-08-31T08:18:37;17.80;99.90
47765;DHT22;33529;49.242;8.670;2023-08-31T08:21:04;17.70;99.90
47765;DHT22;33529;49.242;8.670;2023-08-31T08:23:31;17.70;99.90
47765;DHT22;33529;49.242;8.670;2023-08-31T08:25:58;17.80;99.90
47765;DHT22;33529;49.242;8.670;2023-08-31T08:28:26;17.90;99.90
47765;DHT22;33529;49.242;8.670;2023-08-31T08:30:53;17.80;99.90
47765;DHT22;33529;49.242;8.670;2023-08-31T08:33:20;17.70;99.90
47765;DHT22;33529;49.242;8.670;2023-08-31T08:35:47;17.70;99.90
47765;DHT22;33529;49.242;8.670;2023-08-31T08:38:13;17.90;99.90
47765;DHT22;33529;49.242;8.670;2023-08-31T08:40:40;18.00;99.90
47765;DHT22;33529;49.242;8.670;2023-08-31T08:43:07;18.10;99.90
47765;DHT22;33529;49.242;8.670;2023-08-31T08:45:38;18.20;99.90
47765;DHT22;33529;49.242;8.670;2023-08-31T08:48:08;18.10;99.90
47765;DHT22;33529;49.242;8.670;2023-08-31T08:50:36;18.20;99.90
47765;DHT22;33529;49.242;8.670;2023-08-31T08:53:04;18.40;99.90
47765;DHT22;33529;49.242;8.670;2023-08-31T08:55:32;18.60;99.90
47765;DHT22;33529;49.242;8.670;2023-08-31T08:57:59;18.90;99.90
47765;DHT22;33529;49.242;8.670;2023-08-31T09:00:27;19.20;99.90
47765;DHT22;33529;49.242;8.670;2023-08-31T09:02:55;19.40;99.90
47765;DHT22;33529;49.242;8.670;2023-08-31T09:05:22;19.20;99.90
47765;DHT22;33529;49.242;8.670;2023-08-31T09:10:43;18.90;99.90
47765;DHT22;33529;49.242;8.670;2023-08-31T09:13:12;18.70;99.90
47765;DHT22;33529;49.242;8.670;2023-08-31T09:15:47;18.80;99.90
47765;DHT22;33529;49.242;8.670;2023-08-31T09:20:47;18.90;99.90
47765;DHT22;33529;49.242;8.670;2023-08-31T09:23:14;18.90;99.90
47765;DHT22;33529;49.242;8.670;2023-08-31T09:25:46;18.90;99.90
47765;DHT22;33529;49.242;8.670;2023-08-31T09:28:17;19.00;99.90
47765;DHT22;33529;49.242;8.670;2023-08-31T09:30:46;19.10;99.90
47765;DHT22;33529;49.242;8.670;2023-08-31T09:33:16;19.00;99.90
47765;DHT22;33529;49.242;8.670;2023-08-31T09:35:51;19.20;99.90
47765;DHT22;33529;49.242;8.670;2023-08-31T09:38:19;19.50;99.90
47765;DHT22;33529;49.242;8.670;2023-08-31T09:40:46;19.60;99.90
47765;DHT22;33529;49.242;8.670;2023-08-31T09:43:22;19.60;99.90
47765;DHT22;33529;49.242;8.670;2023-08-31T09:45:50;19.70;99.90
47765;DHT22;33529;49.242;8.670;2023-08-31T09:48:26;19.70;99.90
47765;DHT22;33529;49.242;8.670;2023-08-31T09:50:54;19.70;99.90
47765;DHT22;33529;49.242;8.670;2023-08-31T09:53:24;19.50;99.90
47765;DHT22;33529;49.242;8.670;2023-08-31T09:55:56;19.60;99.90
47765;DHT22;33529;49.242;8.670;2023-08-31T09:58:23;19.50;99.90
47765;DHT22;33529;49.242;8.670;2023-08-31T10:00:52;19.40;99.90
47765;DHT22;33529;49.242;8.670;2023-08-31T10:03:20;19.30;99.90
47765;DHT22;33529;49.242;8.670;2023-08-31T10:05:49;19.30;99.90
47765;DHT22;33529;49.242;8.670;2023-08-31T10:08:18;19.60;99.90
47765;DHT22;33529;49.242;8.670;2023-08-31T10:10:45;20.00;99.90
47765;DHT22;33529;49.242;8.670;2023-08-31T10:13:14;20.20;99.90
47765;DHT22;33529;49.242;8.670;2023-08-31T10:15:43;20.20;99.90
47765;DHT22;33529;49.242;8.670;2023-08-31T10:18:11;20.20;99.90
47765;DHT22;33529;49.242;8.670;2023-08-31T10:20:42;20.20;99.90
47765;DHT22;33529;49.242;8.670;2023-08-31T10:23:11;20.10;99.90
47765;DHT22;33529;49.242;8.670;2023-08-31T10:31:04;20.00;99.90
47765;DHT22;33529;49.242;8.670;2023-08-31T10:33:42;20.10;99.90
47765;DHT22;33529;49.242;8.670;2023-08-31T10:36:20;19.90;99.90
47765;DHT22;33529;49.242;8.670;2023-08-31T10:41:23;19.80;99.90
47765;DHT22;33529;49.242;8.670;2023-08-31T10:43:52;19.90;99.90
47765;DHT22;33529;49.242;8.670;2023-08-31T10:46:26;19.90;99.90
47765;DHT22;33529;49.242;8.670;2023-08-31T10:51:30;19.60;99.90
47765;DHT22;33529;49.242;8.670;2023-08-31T10:59:21;19.40;99.90
47765;DHT22;33529;49.242;8.670;2023-08-31T11:04:27;19.40;99.30
47765;DHT22;33529;49.242;8.670;2023-08-31T11:07:14;19.30;99.50
47765;DHT22;33529;49.242;8.670;2023-08-31T11:09:42;19.40;99.90
47765;DHT22;33529;49.242;8.670;2023-08-31T11:12:09;19.40;98.90
47765;DHT22;33529;49.242;8.670;2023-08-31T11:14:37;19.60;99.40
47765;DHT22;33529;49.242;8.670;2023-08-31T11:17:04;19.70;99.90
47765;DHT22;33529;49.242;8.670;2023-08-31T11:19:34;19.80;98.30
47765;DHT22;33529;49.242;8.670;2023-08-31T11:22:03;19.80;99.80
47765;DHT22;33529;49.242;8.670;2023-08-31T11:24:33;19.90;99.90
47765;DHT22;33529;49.242;8.670;2023-08-31T11:27:00;20.10;99.50
47765;DHT22;33529;49.242;8.670;2023-08-31T11:29:30;20.20;95.90
47765;DHT22;33529;49.242;8.670;2023-08-31T11:31:57;20.10;96.50
47765;DHT22;33529;49.242;8.670;2023-08-31T11:34:27;20.20;99.50
47765;DHT22;33529;49.242;8.670;2023-08-31T11:36:54;20.20;97.50
47765;DHT22;33529;49.242;8.670;2023-08-31T11:39:22;20.30;98.80
47765;DHT22;33529;49.242;8.670;2023-08-31T11:41:51;20.30;99.60
47765;DHT22;33529;49.242;8.670;2023-08-31T11:44:18;20.30;99.40
47765;DHT22;33529;49.242;8.670;2023-08-31T11:46:46;20.30;99.90
47765;DHT22;33529;49.242;8.670;2023-08-31T11:49:20;20.50;99.90
47765;DHT22;33529;49.242;8.670;2023-08-31T11:51:49;20.80;99.90
47765;DHT22;33529;49.242;8.670;2023-08-31T11:54:19;20.80;99.90
47765;DHT22;33529;49.242;8.670;2023-08-31T11:56:47;20.90;99.90
47765;DHT22;33529;49.242;8.670;2023-08-31T11:59:18;20.90;99.50
47765;DHT22;33529;49.242;8.670;2023-08-31T12:01:47;20.80;99.90
47765;DHT22;33529;49.242;8.670;2023-08-31T12:04:21;20.80;99.90
47765;DHT22;33529;49.242;8.670;2023-08-31T12:06:52;20.90;99.00
47765;DHT22;33529;49.242;8.670;2023-08-31T12:09:22;20.80;99.30
47765;DHT22;33529;49.242;8.670;2023-08-31T12:11:52;20.80;99.90
47765;DHT22;33529;49.242;8.670;2023-08-31T12:16:46;20.90;99.90
47765;DHT22;33529;49.242;8.670;2023-08-31T12:19:13;20.90;99.70
47765;DHT22;33529;49.242;8.670;2023-08-31T12:21:43;20.90;98.60
47765;DHT22;33529;49.242;8.670;2023-08-31T12:24:13;20.90;98.70
47765;DHT22;33529;49.242;8.670;2023-08-31T12:26:42;20.80;99.90
47765;DHT22;33529;49.242;8.670;2023-08-31T12:29:09;20.80;99.90
47765;DHT22;33529;49.242;8.670;2023-08-31T12:31:36;20.60;99.50
47765;DHT22;33529;49.242;8.670;2023-08-31T12:34:03;20.50;99.90
47765;DHT22;33529;49.242;8.670;2023-08-31T12:36:33;20.30;99.90
47765;DHT22;33529;49.242;8.670;2023-08-31T12:39:00;20.20;99.00
47765;DHT22;33529;49.242;8.670;2023-08-31T12:41:28;20.30;99.90
47765;DHT22;33529;49.242;8.670;2023-08-31T12:43:55;20.30;99.90
47765;DHT22;33529;49.242;8.670;2023-08-31T12:46:23;20.50;99.70
47765;DHT22;33529;49.242;8.670;2023-08-31T12:48:50;20.70;99.20
47765;DHT22;33529;49.242;8.670;2023-08-31T12:51:17;20.80;98.70
47765;DHT22;33529;49.242;8.670;2023-08-31T12:53:44;20.80;99.50
47765;DHT22;33529;49.242;8.670;2023-08-31T12:56:13;21.00;98.40
47765;DHT22;33529;49.242;8.670;2023-08-31T12:58:41;21.30;98.90
47765;DHT22;33529;49.242;8.670;2023-08-31T13:01:08;21.50;98.90
47765;DHT22;33529;49.242;8.670;2023-08-31T13:03:35;21.50;97.50
47765;DHT22;33529;49.242;8.670;2023-08-31T13:06:02;21.70;97.20
47765;DHT22;33529;49.242;8.670;2023-08-31T13:08:29;22.00;97.30
47765;DHT22;33529;49.242;8.670;2023-08-31T13:10:56;22.10;96.50
47765;DHT22;33529;49.242;8.670;2023-08-31T13:13:23;22.00;95.70
47765;DHT22;33529;49.242;8.670;2023-08-31T13:15:50;21.80;96.00
47765;DHT22;33529;49.242;8.670;2023-08-31T13:18:17;21.20;95.50
47765;DHT22;33529;49.242;8.670;2023-08-31T13:20:52;21.10;97.00
47765;DHT22;33529;49.242;8.670;2023-08-31T13:23:20;21.10;97.20
47765;DHT22;33529;49.242;8.670;2023-08-31T13:25:47;21.00;97.30
47765;DHT22;33529;49.242;8.670;2023-08-31T13:28:14;21.10;97.60
47765;DHT22;33529;49.242;8.670;2023-08-31T13:30:41;21.20;95.40
47765;DHT22;33529;49.242;8.670;2023-08-31T13:33:09;21.20;97.10
47765;DHT22;33529;49.242;8.670;2023-08-31T13:35:36;20.90;97.30
47765;DHT22;33529;49.242;8.670;2023-08-31T13:38:03;20.90;97.50
47765;DHT22;33529;49.242;8.670;2023-08-31T13:40:30;20.80;97.50
47765;DHT22;33529;49.242;8.670;2023-08-31T13:42:58;20.70;97.00
47765;DHT22;33529;49.242;8.670;2023-08-31T13:45:28;20.60;96.00
47765;DHT22;33529;49.242;8.670;2023-08-31T13:47:55;20.50;96.50
47765;DHT22;33529;49.242;8.670;2023-08-31T13:50:22;20.60;97.70
47765;DHT22;33529;49.242;8.670;2023-08-31T13:52:50;20.60;97.40
47765;DHT22;33529;49.242;8.670;2023-08-31T13:55:17;20.40;96.80
47765;DHT22;33529;49.242;8.670;2023-08-31T13:57:43;20.40;97.30
47765;DHT22;33529;49.242;8.670;2023-08-31T14:00:11;20.30;98.00
47765;DHT22;33529;49.242;8.670;2023-08-31T14:02:39;20.30;97.70
47765;DHT22;33529;49.242;8.670;2023-08-31T14:05:09;20.20;99.30
47765;DHT22;33529;49.242;8.670;2023-08-31T14:07:37;20.20;98.40
47765;DHT22;33529;49.242;8.670;2023-08-31T14:10:04;20.40;96.90
47765;DHT22;33529;49.242;8.670;2023-08-31T14:12:34;20.90;98.90
47765;DHT22;33529;49.242;8.670;2023-08-31T14:15:05;21.20;97.90
47765;DHT22;33529;49.242;8.670;2023-08-31T14:17:32;21.20;96.60
47765;DHT22;33529;49.242;8.670;2023-08-31T14:20:00;21.10;98.20
47765;DHT22;33529;49.242;8.670;2023-08-31T14:22:27;20.90;97.90
47765;DHT22;33529;49.242;8.670;2023-08-31T14:24:55;20.60;97.90
47765;DHT22;33529;49.242;8.670;2023-08-31T14:27:22;20.20;98.40
47765;DHT22;33529;49.242;8.670;2023-08-31T14:29:50;20.00;99.90
47765;DHT22;33529;49.242;8.670;2023-08-31T14:32:17;19.90;99.90
47765;DHT22;33529;49.242;8.670;2023-08-31T14:34:43;19.80;99.90
47765;DHT22;33529;49.242;8.670;2023-08-31T14:37:10;19.70;99.90
47765;DHT22;33529;49.242;8.670;2023-08-31T14:39:37;19.60;99.90
47765;DHT22;33529;49.242;8.670;2023-08-31T14:42:04;19.60;99.90
47765;DHT22;33529;49.242;8.670;2023-08-31T14:44:31;19.50;99.90
47765;DHT22;33529;49.242;8.670;2023-08-31T14:46:58;19.40;99.90
47765;DHT22;33529;49.242;8.670;2023-08-31T14:49:24;19.40;99.90
47765;DHT22;33529;49.242;8.670;2023-08-31T14:51:52;19.30;99.90
47765;DHT22;33529;49.242;8.670;2023-08-31T14:54:19;19.30;99.90
47765;DHT22;33529;49.242;8.670;2023-08-31T14:56:45;19.20;99.90
47765;DHT22;33529;49.242;8.670;2023-08-31T14:59:12;19.20;99.90
47765;DHT22;33529;49.242;8.670;2023-08-31T15:01:39;19.30;99.90
47765;DHT22;33529;49.242;8.670;2023-08-31T15:04:06;19.20;99.90
47765;DHT22;33529;49.242;8.670;2023-08-31T15:06:33;19.20;99.90
47765;DHT22;33529;49.242;8.670;2023-08-31T15:09:01;19.20;99.90
47765;DHT22;33529;49.242;8.670;2023-08-31T15:11:28;19.30;99.90
47765;DHT22;33529;49.242;8.670;2023-08-31T15:13:55;19.20;99.90
47765;DHT22;33529;49.242;8.670;2023-08-31T15:16:23;19.20;99.90
47765;DHT22;33529;49.242;8.670;2023-08-31T15:18:50;19.20;99.90
47765;DHT22;33529;49.242;8.670;2023-08-31T15:21:18;19.20;99.90
47765;DHT22;33529;49.242;8.670;2023-08-31T15:23:45;19.20;99.90
47765;DHT22;33529;49.242;8.670;2023-08-31T15:26:12;19.30;99.90
47765;DHT22;33529;49.242;8.670;2023-08-31T15:28:41;19.40;99.90
47765;DHT22;33529;49.242;8.670;2023-08-31T15:31:11;19.50;99.90
47765;DHT22;33529;49.242;8.670;2023-08-31T15:33:38;19.50;99.90
47765;DHT22;33529;49.242;8.670;2023-08-31T15:36:06;19.50;99.90
47765;DHT22;33529;49.242;8.670;2023-08-31T15:38:35;19.60;99.90
47765;DHT22;33529;49.242;8.670;2023-08-31T15:41:03;19.60;99.90
47765;DHT22;33529;49.242;8.670;2023-08-31T15:43:32;19.60;99.90
47765;DHT22;33529;49.242;8.670;2023-08-31T15:46:00;19.60;99.90
47765;DHT22;33529;49.242;8.670;2023-08-31T15:48:27;19.60;99.90
47765;DHT22;33529;49.242;8.670;2023-08-31T15:50:55;19.60;99.90
47765;DHT22;33529;49.242;8.670;2023-08-31T15:53:22;19.60;99.90
47765;DHT22;33529;49.242;8.670;2023-08-31T15:55:50;19.80;99.90
47765;DHT22;33529;49.242;8.670;2023-08-31T15:58:17;19.80;99.90
47765;DHT22;33529;49.242;8.670;2023-08-31T16:00:44;19.70;99.90
47765;DHT22;33529;49.242;8.670;2023-08-31T16:03:11;19.70;99.90
47765;DHT22;33529;49.242;8.670;2023-08-31T16:05:38;19.60;99.90